sensor_id;sensor_type;location;lat;lon;timestamp;P1;durP1;ratioP1;P2;durP2;ratioP2
31073;SDS011;17730;53.552;9.940;2022-08-20T00:00:02;15.52;;;9.32;;
31073;SDS011;17730;53.552;9.940;2022-08-20T00:02:37;13.45;;;9.32;;
31073;SDS011;17730;53.552;9.940;2022-08-20T00:05:04;12.98;;;8.75;;
31073;SDS011;17730;53.552;9.940;2022-08-20T00:07:30;12.05;;;8.55;;
31073;SDS011;17730;53.552;9.940;2022-08-20T00:09:56;14.82;;;9.52;;
31073;SDS011;17730;53.552;9.940;2022-08-20T00:12:22;11.23;;;8.60;;
31073;SDS011;17730;53.552;9.940;2022-08-20T00:14:47;11.45;;;8.45;;
31073;SDS011;17730;53.552;9.940;2022-08-20T00:17:13;10.95;;;8.45;;
31073;SDS011;17730;53.552;9.940;2022-08-20T00:19:39;9.57;;;7.88;;
31073;SDS011;17730;53.552;9.940;2022-08-20T00:22:05;12.23;;;7.90;;
31073;SDS011;17730;53.552;9.940;2022-08-20T00:24:31;14.25;;;8.38;;
31073;SDS011;17730;53.552;9.940;2022-08-20T00:26:57;14.32;;;8.70;;
31073;SDS011;17730;53.552;9.940;2022-08-20T00:29:22;10.82;;;8.20;;
31073;SDS011;17730;53.552;9.940;2022-08-20T00:31:48;9.32;;;7.32;;
31073;SDS011;17730;53.552;9.940;2022-08-20T00:34:14;10.93;;;7.30;;
31073;SDS011;17730;53.552;9.940;2022-08-20T00:36:40;17.92;;;10.18;;
31073;SDS011;17730;53.552;9.940;2022-08-20T00:39:05;8.40;;;6.82;;
31073;SDS011;17730;53.552;9.940;2022-08-20T00:41:31;8.18;;;6.95;;
31073;SDS011;17730;53.552;9.940;2022-08-20T00:44:05;10.27;;;7.65;;
31073;SDS011;17730;53.552;9.940;2022-08-20T00:46:39;9.35;;;6.47;;
31073;SDS011;17730;53.552;9.940;2022-08-20T00:49:06;7.25;;;6.55;;
31073;SDS011;17730;53.552;9.940;2022-08-20T00:56:35;9.30;;;6.38;;
31073;SDS011;17730;53.552;9.940;2022-08-20T00:59:03;10.95;;;5.88;;
31073;SDS011;17730;53.552;9.940;2022-08-20T01:01:35;11.48;;;5.95;;
31073;SDS011;17730;53.552;9.940;2022-08-20T01:04:03;11.23;;;5.90;;
31073;SDS011;17730;53.552;9.940;2022-08-20T01:06:29;6.30;;;5.18;;
31073;SDS011;17730;53.552;9.940;2022-08-20T01:08:55;7.43;;;6.07;;
31073;SDS011;17730;53.552;9.940;2022-08-20T01:11:22;8.55;;;5.30;;
31073;SDS011;17730;53.552;9.940;2022-08-20T01:13:57;8.85;;;6.32;;
31073;SDS011;17730;53.552;9.940;2022-08-20T01:16:25;8.02;;;6.40;;
31073;SDS011;17730;53.552;9.940;2022-08-20T01:18:55;7.68;;;6.05;;
31073;SDS011;17730;53.552;9.940;2022-08-20T01:21:24;9.65;;;6.00;;
31073;SDS011;17730;53.552;9.940;2022-08-20T01:24:06;8.13;;;6.32;;
31073;SDS011;17730;53.552;9.940;2022-08-20T01:26:42;7.65;;;5.65;;
31073;SDS011;17730;53.552;9.940;2022-08-20T01:29:15;6.97;;;5.47;;
31073;SDS011;17730;53.552;9.940;2022-08-20T01:31:44;9.65;;;6.97;;
31073;SDS011;17730;53.552;9.940;2022-08-20T01:34:11;5.95;;;5.07;;
31073;SDS011;17730;53.552;9.940;2022-08-20T01:36:41;7.43;;;4.80;;
31073;SDS011;17730;53.552;9.940;2022-08-20T01:39:11;9.30;;;5.07;;
31073;SDS011;17730;53.552;9.940;2022-08-20T01:44:43;6.28;;;4.68;;
31073;SDS011;17730;53.552;9.940;2022-08-20T01:47:12;5.97;;;4.25;;
31073;SDS011;17730;53.552;9.940;2022-08-20T01:49:51;8.75;;;4.28;;
31073;SDS011;17730;53.552;9.940;2022-08-20T01:55:19;7.13;;;5.45;;
31073;SDS011;17730;53.552;9.940;2022-08-20T01:57:45;5.47;;;4.40;;
31073;SDS011;17730;53.552;9.940;2022-08-20T02:00:14;5.75;;;3.75;;
31073;SDS011;17730;53.552;9.940;2022-08-20T02:02:41;4.72;;;4.22;;
31073;SDS011;17730;53.552;9.940;2022-08-20T02:05:07;6.28;;;4.07;;
31073;SDS011;17730;53.552;9.940;2022-08-20T02:07:33;9.13;;;5.20;;
31073;SDS011;17730;53.552;9.940;2022-08-20T02:09:59;5.57;;;4.25;;
31073;SDS011;17730;53.552;9.940;2022-08-20T02:12:25;6.30;;;5.05;;
31073;SDS011;17730;53.552;9.940;2022-08-20T02:14:52;7.30;;;4.00;;
31073;SDS011;17730;53.552;9.940;2022-08-20T02:17:19;5.18;;;3.53;;
31073;SDS011;17730;53.552;9.940;2022-08-20T02:19:51;6.70;;;3.33;;
31073;SDS011;17730;53.552;9.940;2022-08-20T02:25:11;5.13;;;4.28;;
31073;SDS011;17730;53.552;9.940;2022-08-20T02:27:39;4.97;;;4.38;;
31073;SDS011;17730;53.552;9.940;2022-08-20T02:30:09;6.07;;;5.47;;
31073;SDS011;17730;53.552;9.940;2022-08-20T02:32:39;9.20;;;5.25;;
31073;SDS011;17730;53.552;9.940;2022-08-20T02:35:06;12.20;;;6.50;;
31073;SDS011;17730;53.552;9.940;2022-08-20T02:37:34;9.73;;;6.43;;
31073;SDS011;17730;53.552;9.940;2022-08-20T02:40:02;9.10;;;6.20;;
31073;SDS011;17730;53.552;9.940;2022-08-20T02:42:31;12.10;;;7.20;;
31073;SDS011;17730;53.552;9.940;2022-08-20T02:44:58;14.45;;;8.30;;
31073;SDS011;17730;53.552;9.940;2022-08-20T02:47:24;13.50;;;7.07;;
31073;SDS011;17730;53.552;9.940;2022-08-20T02:49:51;8.32;;;6.70;;
31073;SDS011;17730;53.552;9.940;2022-08-20T02:52:18;7.88;;;5.97;;
31073;SDS011;17730;53.552;9.940;2022-08-20T02:54:44;10.82;;;6.93;;
31073;SDS011;17730;53.552;9.940;2022-08-20T02:57:11;12.38;;;7.07;;
31073;SDS011;17730;53.552;9.940;2022-08-20T02:59:38;15.25;;;9.20;;
31073;SDS011;17730;53.552;9.940;2022-08-20T03:02:03;18.95;;;11.82;;
31073;SDS011;17730;53.552;9.940;2022-08-20T03:04:29;21.58;;;11.98;;
31073;SDS011;17730;53.552;9.940;2022-08-20T03:06:55;17.80;;;12.13;;
31073;SDS011;17730;53.552;9.940;2022-08-20T03:09:21;14.23;;;10.35;;
31073;SDS011;17730;53.552;9.940;2022-08-20T03:11:46;13.93;;;9.45;;
31073;SDS011;17730;53.552;9.940;2022-08-20T03:14:12;15.63;;;8.90;;
31073;SDS011;17730;53.552;9.940;2022-08-20T03:16:37;16.58;;;9.40;;
31073;SDS011;17730;53.552;9.940;2022-08-20T03:19:03;10.15;;;7.70;;
31073;SDS011;17730;53.552;9.940;2022-08-20T03:21:28;13.32;;;8.98;;
31073;SDS011;17730;53.552;9.940;2022-08-20T03:23:54;14.77;;;9.50;;
31073;SDS011;17730;53.552;9.940;2022-08-20T03:26:20;12.07;;;9.02;;
31073;SDS011;17730;53.552;9.940;2022-08-20T03:28:45;13.95;;;9.43;;
31073;SDS011;17730;53.552;9.940;2022-08-20T03:31:11;13.90;;;8.70;;
31073;SDS011;17730;53.552;9.940;2022-08-20T03:33:39;12.65;;;9.57;;
31073;SDS011;17730;53.552;9.940;2022-08-20T03:36:05;20.58;;;9.35;;
31073;SDS011;17730;53.552;9.940;2022-08-20T03:38:31;14.88;;;11.13;;
31073;SDS011;17730;53.552;9.940;2022-08-20T03:40:57;14.43;;;9.27;;
31073;SDS011;17730;53.552;9.940;2022-08-20T03:43:22;12.27;;;8.43;;
31073;SDS011;17730;53.552;9.940;2022-08-20T03:45:48;15.55;;;8.82;;
31073;SDS011;17730;53.552;9.940;2022-08-20T03:48:16;15.45;;;11.10;;
31073;SDS011;17730;53.552;9.940;2022-08-20T03:50:43;17.90;;;10.73;;
31073;SDS011;17730;53.552;9.940;2022-08-20T03:53:11;18.50;;;10.52;;
31073;SDS011;17730;53.552;9.940;2022-08-20T03:55:39;16.42;;;11.35;;
31073;SDS011;17730;53.552;9.940;2022-08-20T03:58:08;17.42;;;13.52;;
31073;SDS011;17730;53.552;9.940;2022-08-20T04:00:39;18.75;;;13.73;;
31073;SDS011;17730;53.552;9.940;2022-08-20T04:03:11;15.32;;;12.73;;
31073;SDS011;17730;53.552;9.940;2022-08-20T04:05:48;21.13;;;14.52;;
31073;SDS011;17730;53.552;9.940;2022-08-20T04:08:21;22.38;;;13.43;;
31073;SDS011;17730;53.552;9.940;2022-08-20T04:10:50;21.70;;;14.70;;
31073;SDS011;17730;53.552;9.940;2022-08-20T04:13:18;21.83;;;14.68;;
31073;SDS011;17730;53.552;9.940;2022-08-20T04:15:45;21.38;;;14.90;;
31073;SDS011;17730;53.552;9.940;2022-08-20T04:18:12;24.23;;;16.83;;
31073;SDS011;17730;53.552;9.940;2022-08-20T04:20:40;22.00;;;16.55;;
31073;SDS011;17730;53.552;9.940;2022-08-20T04:23:07;25.30;;;16.85;;
31073;SDS011;17730;53.552;9.940;2022-08-20T04:25:33;30.02;;;17.42;;
31073;SDS011;17730;53.552;9.940;2022-08-20T04:28:01;22.98;;;16.60;;
31073;SDS011;17730;53.552;9.940;2022-08-20T04:30:29;22.67;;;15.95;;
31073;SDS011;17730;53.552;9.940;2022-08-20T04:32:56;27.52;;;17.05;;
31073;SDS011;17730;53.552;9.940;2022-08-20T04:35:24;25.02;;;17.48;;
31073;SDS011;17730;53.552;9.940;2022-08-20T04:37:57;26.08;;;16.98;;
31073;SDS011;17730;53.552;9.940;2022-08-20T04:40:28;25.60;;;17.15;;
31073;SDS011;17730;53.552;9.940;2022-08-20T04:43:13;25.13;;;15.70;;
31073;SDS011;17730;53.552;9.940;2022-08-20T04:45:39;24.90;;;16.88;;
31073;SDS011;17730;53.552;9.940;2022-08-20T04:48:05;29.67;;;17.30;;
31073;SDS011;17730;53.552;9.940;2022-08-20T04:50:35;32.05;;;18.38;;
31073;SDS011;17730;53.552;9.940;2022-08-20T04:53:04;30.60;;;17.00;;
31073;SDS011;17730;53.552;9.940;2022-08-20T04:55:31;26.33;;;17.25;;
31073;SDS011;17730;53.552;9.940;2022-08-20T04:58:04;29.00;;;17.02;;
31073;SDS011;17730;53.552;9.940;2022-08-20T05:00:31;26.10;;;17.45;;
31073;SDS011;17730;53.552;9.940;2022-08-20T05:02:57;23.50;;;16.75;;
31073;SDS011;17730;53.552;9.940;2022-08-20T05:05:23;24.20;;;16.15;;
31073;SDS011;17730;53.552;9.940;2022-08-20T05:07:49;24.02;;;15.35;;
31073;SDS011;17730;53.552;9.940;2022-08-20T05:10:15;23.85;;;15.90;;
31073;SDS011;17730;53.552;9.940;2022-08-20T05:12:43;25.95;;;16.30;;
31073;SDS011;17730;53.552;9.940;2022-08-20T05:15:09;21.73;;;16.15;;
31073;SDS011;17730;53.552;9.940;2022-08-20T05:17:37;28.33;;;16.58;;
31073;SDS011;17730;53.552;9.940;2022-08-20T05:20:04;25.52;;;15.48;;
31073;SDS011;17730;53.552;9.940;2022-08-20T05:22:31;23.98;;;14.65;;
31073;SDS011;17730;53.552;9.940;2022-08-20T05:24:57;20.60;;;14.32;;
31073;SDS011;17730;53.552;9.940;2022-08-20T05:27:23;23.10;;;15.52;;
31073;SDS011;17730;53.552;9.940;2022-08-20T05:29:53;21.70;;;15.60;;
31073;SDS011;17730;53.552;9.940;2022-08-20T05:32:20;21.60;;;14.73;;
31073;SDS011;17730;53.552;9.940;2022-08-20T05:34:46;25.70;;;15.00;;
31073;SDS011;17730;53.552;9.940;2022-08-20T05:37:12;24.77;;;14.38;;
31073;SDS011;17730;53.552;9.940;2022-08-20T05:39:38;20.33;;;13.80;;
31073;SDS011;17730;53.552;9.940;2022-08-20T05:42:04;20.10;;;14.80;;
31073;SDS011;17730;53.552;9.940;2022-08-20T05:44:29;23.90;;;13.88;;
31073;SDS011;17730;53.552;9.940;2022-08-20T05:46:55;23.23;;;13.88;;
31073;SDS011;17730;53.552;9.940;2022-08-20T05:49:21;20.55;;;13.40;;
31073;SDS011;17730;53.552;9.940;2022-08-20T05:51:47;20.50;;;13.52;;
31073;SDS011;17730;53.552;9.940;2022-08-20T05:54:13;20.33;;;14.52;;
31073;SDS011;17730;53.552;9.940;2022-08-20T05:56:48;20.23;;;14.30;;
31073;SDS011;17730;53.552;9.940;2022-08-20T05:59:14;18.15;;;14.38;;
31073;SDS011;17730;53.552;9.940;2022-08-20T06:01:42;19.73;;;15.02;;
31073;SDS011;17730;53.552;9.940;2022-08-20T06:04:08;23.85;;;14.15;;
31073;SDS011;17730;53.552;9.940;2022-08-20T06:06:52;22.35;;;15.25;;
31073;SDS011;17730;53.552;9.940;2022-08-20T06:09:29;21.52;;;15.00;;
31073;SDS011;17730;53.552;9.940;2022-08-20T06:11:56;20.85;;;14.43;;
31073;SDS011;17730;53.552;9.940;2022-08-20T06:14:23;22.45;;;15.43;;
31073;SDS011;17730;53.552;9.940;2022-08-20T06:16:49;22.75;;;14.82;;
31073;SDS011;17730;53.552;9.940;2022-08-20T06:19:15;23.10;;;15.88;;
31073;SDS011;17730;53.552;9.940;2022-08-20T06:21:41;25.00;;;15.63;;
31073;SDS011;17730;53.552;9.940;2022-08-20T06:24:07;20.90;;;16.15;;
31073;SDS011;17730;53.552;9.940;2022-08-20T06:26:33;26.20;;;15.80;;
31073;SDS011;17730;53.552;9.940;2022-08-20T06:29:00;20.88;;;15.57;;
31073;SDS011;17730;53.552;9.940;2022-08-20T06:31:30;27.90;;;16.83;;
31073;SDS011;17730;53.552;9.940;2022-08-20T06:33:55;23.90;;;16.35;;
31073;SDS011;17730;53.552;9.940;2022-08-20T06:36:21;22.73;;;15.90;;
31073;SDS011;17730;53.552;9.940;2022-08-20T06:38:47;24.90;;;16.70;;
31073;SDS011;17730;53.552;9.940;2022-08-20T06:41:14;25.48;;;15.77;;
31073;SDS011;17730;53.552;9.940;2022-08-20T06:43:41;21.63;;;15.82;;
31073;SDS011;17730;53.552;9.940;2022-08-20T06:46:08;19.02;;;15.43;;
31073;SDS011;17730;53.552;9.940;2022-08-20T06:48:37;24.77;;;16.50;;
31073;SDS011;17730;53.552;9.940;2022-08-20T06:51:02;20.48;;;15.38;;
31073;SDS011;17730;53.552;9.940;2022-08-20T06:53:30;20.17;;;15.18;;
31073;SDS011;17730;53.552;9.940;2022-08-20T06:55:57;24.45;;;15.80;;
31073;SDS011;17730;53.552;9.940;2022-08-20T06:58:27;21.85;;;15.88;;
31073;SDS011;17730;53.552;9.940;2022-08-20T07:00:55;22.23;;;15.75;;
31073;SDS011;17730;53.552;9.940;2022-08-20T07:03:21;23.65;;;15.80;;
31073;SDS011;17730;53.552;9.940;2022-08-20T07:05:47;22.42;;;14.07;;
31073;SDS011;17730;53.552;9.940;2022-08-20T07:08:13;19.13;;;13.15;;
31073;SDS011;17730;53.552;9.940;2022-08-20T07:10:42;17.30;;;12.43;;
31073;SDS011;17730;53.552;9.940;2022-08-20T07:13:09;15.85;;;11.02;;
31073;SDS011;17730;53.552;9.940;2022-08-20T07:15:36;18.60;;;11.85;;
31073;SDS011;17730;53.552;9.940;2022-08-20T07:18:03;17.23;;;11.75;;
31073;SDS011;17730;53.552;9.940;2022-08-20T07:20:34;14.57;;;10.35;;
31073;SDS011;17730;53.552;9.940;2022-08-20T07:23:01;13.75;;;9.27;;
31073;SDS011;17730;53.552;9.940;2022-08-20T07:25:27;19.88;;;10.10;;
31073;SDS011;17730;53.552;9.940;2022-08-20T07:27:58;15.63;;;9.82;;
31073;SDS011;17730;53.552;9.940;2022-08-20T07:30:25;13.65;;;10.05;;
31073;SDS011;17730;53.552;9.940;2022-08-20T07:33:11;12.60;;;8.18;;
31073;SDS011;17730;53.552;9.940;2022-08-20T07:35:40;14.15;;;8.13;;
31073;SDS011;17730;53.552;9.940;2022-08-20T07:38:18;14.02;;;7.50;;
31073;SDS011;17730;53.552;9.940;2022-08-20T07:41:07;9.80;;;6.13;;
31073;SDS011;17730;53.552;9.940;2022-08-20T07:43:37;11.95;;;6.05;;
31073;SDS011;17730;53.552;9.940;2022-08-20T07:46:03;8.82;;;5.25;;
31073;SDS011;17730;53.552;9.940;2022-08-20T07:48:50;10.23;;;5.93;;
31073;SDS011;17730;53.552;9.940;2022-08-20T07:51:18;12.57;;;5.68;;
31073;SDS011;17730;53.552;9.940;2022-08-20T07:53:46;11.20;;;5.47;;
31073;SDS011;17730;53.552;9.940;2022-08-20T07:56:14;7.47;;;4.75;;
31073;SDS011;17730;53.552;9.940;2022-08-20T07:58:44;11.93;;;5.80;;
31073;SDS011;17730;53.552;9.940;2022-08-20T08:01:19;14.68;;;5.70;;
31073;SDS011;17730;53.552;9.940;2022-08-20T08:03:54;13.00;;;5.53;;
31073;SDS011;17730;53.552;9.940;2022-08-20T08:06:21;9.88;;;5.82;;
31073;SDS011;17730;53.552;9.940;2022-08-20T08:08:48;14.05;;;5.50;;
31073;SDS011;17730;53.552;9.940;2022-08-20T08:11:14;12.50;;;5.72;;
31073;SDS011;17730;53.552;9.940;2022-08-20T08:13:40;11.68;;;5.72;;
31073;SDS011;17730;53.552;9.940;2022-08-20T08:16:07;10.52;;;4.53;;
31073;SDS011;17730;53.552;9.940;2022-08-20T08:18:36;6.38;;;4.95;;
31073;SDS011;17730;53.552;9.940;2022-08-20T08:21:16;11.25;;;4.20;;
31073;SDS011;17730;53.552;9.940;2022-08-20T08:23:43;12.13;;;4.63;;
31073;SDS011;17730;53.552;9.940;2022-08-20T08:26:13;5.72;;;3.80;;
31073;SDS011;17730;53.552;9.940;2022-08-20T08:28:45;9.40;;;3.72;;
31073;SDS011;17730;53.552;9.940;2022-08-20T08:31:11;9.25;;;3.90;;
31073;SDS011;17730;53.552;9.940;2022-08-20T08:33:41;9.73;;;4.03;;
31073;SDS011;17730;53.552;9.940;2022-08-20T08:36:13;7.70;;;3.70;;
31073;SDS011;17730;53.552;9.940;2022-08-20T08:38:41;9.70;;;3.40;;
31073;SDS011;17730;53.552;9.940;2022-08-20T08:41:46;9.23;;;4.03;;
31073;SDS011;17730;53.552;9.940;2022-08-20T08:44:16;9.45;;;4.05;;
31073;SDS011;17730;53.552;9.940;2022-08-20T08:46:47;13.55;;;4.50;;
31073;SDS011;17730;53.552;9.940;2022-08-20T08:49:26;13.55;;;3.92;;
31073;SDS011;17730;53.552;9.940;2022-08-20T08:51:56;3.97;;;2.72;;
31073;SDS011;17730;53.552;9.940;2022-08-20T08:54:31;8.18;;;3.45;;
31073;SDS011;17730;53.552;9.940;2022-08-20T08:57:31;5.72;;;2.85;;
31073;SDS011;17730;53.552;9.940;2022-08-20T09:00:15;7.17;;;3.20;;
31073;SDS011;17730;53.552;9.940;2022-08-20T09:02:56;8.88;;;3.78;;
31073;SDS011;17730;53.552;9.940;2022-08-20T09:08:15;6.82;;;3.38;;
31073;SDS011;17730;53.552;9.940;2022-08-20T09:10:44;12.63;;;3.58;;
31073;SDS011;17730;53.552;9.940;2022-08-20T09:13:10;9.05;;;3.35;;
31073;SDS011;17730;53.552;9.940;2022-08-20T09:15:42;11.70;;;3.63;;
31073;SDS011;17730;53.552;9.940;2022-08-20T09:18:07;12.77;;;3.92;;
31073;SDS011;17730;53.552;9.940;2022-08-20T09:20:33;10.25;;;3.15;;
31073;SDS011;17730;53.552;9.940;2022-08-20T09:23:39;10.48;;;3.03;;
31073;SDS011;17730;53.552;9.940;2022-08-20T09:26:37;7.55;;;3.38;;
31073;SDS011;17730;53.552;9.940;2022-08-20T09:29:03;12.05;;;3.10;;
31073;SDS011;17730;53.552;9.940;2022-08-20T09:31:31;9.98;;;3.17;;
31073;SDS011;17730;53.552;9.940;2022-08-20T09:33:57;14.52;;;2.92;;
31073;SDS011;17730;53.552;9.940;2022-08-20T09:36:24;11.20;;;3.65;;
31073;SDS011;17730;53.552;9.940;2022-08-20T09:38:50;8.02;;;3.45;;
31073;SDS011;17730;53.552;9.940;2022-08-20T09:41:44;15.15;;;4.38;;
31073;SDS011;17730;53.552;9.940;2022-08-20T09:44:11;11.90;;;4.15;;
31073;SDS011;17730;53.552;9.940;2022-08-20T09:46:40;15.15;;;3.22;;
31073;SDS011;17730;53.552;9.940;2022-08-20T09:49:15;10.00;;;3.05;;
31073;SDS011;17730;53.552;9.940;2022-08-20T09:51:40;12.18;;;2.90;;
31073;SDS011;17730;53.552;9.940;2022-08-20T09:54:06;7.75;;;3.08;;
31073;SDS011;17730;53.552;9.940;2022-08-20T09:56:32;11.40;;;3.20;;
31073;SDS011;17730;53.552;9.940;2022-08-20T09:58:59;12.07;;;3.53;;
31073;SDS011;17730;53.552;9.940;2022-08-20T10:01:25;13.90;;;3.20;;
31073;SDS011;17730;53.552;9.940;2022-08-20T10:03:51;12.98;;;3.53;;
31073;SDS011;17730;53.552;9.940;2022-08-20T10:06:17;12.00;;;3.03;;
31073;SDS011;17730;53.552;9.940;2022-08-20T10:08:45;16.23;;;3.08;;
31073;SDS011;17730;53.552;9.940;2022-08-20T10:11:17;15.38;;;5.45;;
31073;SDS011;17730;53.552;9.940;2022-08-20T10:13:43;18.50;;;8.32;;
31073;SDS011;17730;53.552;9.940;2022-08-20T10:16:10;7.57;;;2.83;;
31073;SDS011;17730;53.552;9.940;2022-08-20T10:18:36;13.35;;;3.85;;
31073;SDS011;17730;53.552;9.940;2022-08-20T10:21:02;9.88;;;3.38;;
31073;SDS011;17730;53.552;9.940;2022-08-20T10:23:34;9.73;;;2.58;;
31073;SDS011;17730;53.552;9.940;2022-08-20T10:26:01;9.82;;;3.03;;
31073;SDS011;17730;53.552;9.940;2022-08-20T10:28:26;15.35;;;4.03;;
31073;SDS011;17730;53.552;9.940;2022-08-20T10:30:52;12.10;;;3.35;;
31073;SDS011;17730;53.552;9.940;2022-08-20T10:33:32;11.68;;;3.45;;
31073;SDS011;17730;53.552;9.940;2022-08-20T10:36:10;8.30;;;2.92;;
31073;SDS011;17730;53.552;9.940;2022-08-20T10:39:14;11.63;;;3.53;;
31073;SDS011;17730;53.552;9.940;2022-08-20T10:41:40;12.10;;;4.70;;
31073;SDS011;17730;53.552;9.940;2022-08-20T10:44:06;9.02;;;4.32;;
31073;SDS011;17730;53.552;9.940;2022-08-20T10:46:32;12.23;;;3.40;;
31073;SDS011;17730;53.552;9.940;2022-08-20T10:49:00;10.85;;;3.95;;
31073;SDS011;17730;53.552;9.940;2022-08-20T10:51:36;13.18;;;4.53;;
31073;SDS011;17730;53.552;9.940;2022-08-20T10:54:02;14.30;;;6.78;;
31073;SDS011;17730;53.552;9.940;2022-08-20T10:56:28;18.15;;;6.68;;
31073;SDS011;17730;53.552;9.940;2022-08-20T10:58:54;15.38;;;6.03;;
31073;SDS011;17730;53.552;9.940;2022-08-20T11:01:49;21.48;;;6.50;;
31073;SDS011;17730;53.552;9.940;2022-08-20T11:04:31;9.73;;;3.13;;
31073;SDS011;17730;53.552;9.940;2022-08-20T11:07:10;13.07;;;2.80;;
31073;SDS011;17730;53.552;9.940;2022-08-20T11:09:36;9.60;;;3.83;;
31073;SDS011;17730;53.552;9.940;2022-08-20T11:12:02;7.88;;;3.80;;
31073;SDS011;17730;53.552;9.940;2022-08-20T11:14:30;10.30;;;2.80;;
31073;SDS011;17730;53.552;9.940;2022-08-20T11:17:29;13.95;;;4.85;;
31073;SDS011;17730;53.552;9.940;2022-08-20T11:19:57;10.18;;;3.90;;
31073;SDS011;17730;53.552;9.940;2022-08-20T11:22:26;10.40;;;3.00;;
31073;SDS011;17730;53.552;9.940;2022-08-20T11:24:54;15.27;;;3.05;;
31073;SDS011;17730;53.552;9.940;2022-08-20T11:33:09;9.20;;;2.65;;
31073;SDS011;17730;53.552;9.940;2022-08-20T11:35:35;12.07;;;3.63;;
31073;SDS011;17730;53.552;9.940;2022-08-20T11:38:01;16.42;;;4.68;;
31073;SDS011;17730;53.552;9.940;2022-08-20T11:40:28;12.38;;;3.90;;
31073;SDS011;17730;53.552;9.940;2022-08-20T11:42:54;9.25;;;2.90;;
31073;SDS011;17730;53.552;9.940;2022-08-20T11:45:19;8.85;;;2.17;;
31073;SDS011;17730;53.552;9.940;2022-08-20T11:47:45;12.05;;;2.45;;
31073;SDS011;17730;53.552;9.940;2022-08-20T11:50:16;11.10;;;2.90;;
31073;SDS011;17730;53.552;9.940;2022-08-20T11:52:43;9.95;;;2.65;;
31073;SDS011;17730;53.552;9.940;2022-08-20T11:55:10;11.00;;;2.58;;
31073;SDS011;17730;53.552;9.940;2022-08-20T11:57:40;14.00;;;6.28;;
31073;SDS011;17730;53.552;9.940;2022-08-20T12:00:08;11.55;;;4.03;;
31073;SDS011;17730;53.552;9.940;2022-08-20T12:02:39;17.77;;;3.47;;
31073;SDS011;17730;53.552;9.940;2022-08-20T12:05:05;12.32;;;2.95;;
31073;SDS011;17730;53.552;9.940;2022-08-20T12:07:31;14.63;;;2.60;;
31073;SDS011;17730;53.552;9.940;2022-08-20T12:09:57;10.90;;;3.33;;
31073;SDS011;17730;53.552;9.940;2022-08-20T12:12:23;7.50;;;2.50;;
31073;SDS011;17730;53.552;9.940;2022-08-20T12:14:52;11.65;;;3.88;;
31073;SDS011;17730;53.552;9.940;2022-08-20T12:17:20;7.93;;;2.20;;
31073;SDS011;17730;53.552;9.940;2022-08-20T12:19:52;9.02;;;2.72;;
31073;SDS011;17730;53.552;9.940;2022-08-20T12:22:19;11.93;;;4.10;;
31073;SDS011;17730;53.552;9.940;2022-08-20T12:24:45;23.35;;;10.52;;
31073;SDS011;17730;53.552;9.940;2022-08-20T12:27:15;15.48;;;6.20;;
31073;SDS011;17730;53.552;9.940;2022-08-20T12:29:43;15.77;;;5.95;;
31073;SDS011;17730;53.552;9.940;2022-08-20T12:32:11;10.82;;;4.15;;
31073;SDS011;17730;53.552;9.940;2022-08-20T12:34:38;12.77;;;5.55;;
31073;SDS011;17730;53.552;9.940;2022-08-20T12:37:11;16.40;;;6.97;;
31073;SDS011;17730;53.552;9.940;2022-08-20T12:39:40;14.75;;;2.97;;
31073;SDS011;17730;53.552;9.940;2022-08-20T12:42:08;12.40;;;2.42;;
31073;SDS011;17730;53.552;9.940;2022-08-20T12:44:34;10.38;;;3.25;;
31073;SDS011;17730;53.552;9.940;2022-08-20T12:47:08;20.73;;;9.60;;
31073;SDS011;17730;53.552;9.940;2022-08-20T12:49:39;12.45;;;3.60;;
31073;SDS011;17730;53.552;9.940;2022-08-20T12:52:07;11.63;;;3.65;;
31073;SDS011;17730;53.552;9.940;2022-08-20T12:54:33;9.63;;;3.35;;
31073;SDS011;17730;53.552;9.940;2022-08-20T12:56:59;8.30;;;3.15;;
31073;SDS011;17730;53.552;9.940;2022-08-20T12:59:25;23.70;;;11.05;;
31073;SDS011;17730;53.552;9.940;2022-08-20T13:01:51;10.57;;;2.70;;
31073;SDS011;17730;53.552;9.940;2022-08-20T13:04:17;13.45;;;3.85;;
31073;SDS011;17730;53.552;9.940;2022-08-20T13:06:43;26.52;;;11.50;;
31073;SDS011;17730;53.552;9.940;2022-08-20T13:09:10;14.30;;;5.45;;
31073;SDS011;17730;53.552;9.940;2022-08-20T13:11:36;11.77;;;3.75;;
31073;SDS011;17730;53.552;9.940;2022-08-20T13:14:01;9.60;;;2.20;;
31073;SDS011;17730;53.552;9.940;2022-08-20T13:16:27;14.32;;;2.50;;
31073;SDS011;17730;53.552;9.940;2022-08-20T13:18:53;9.05;;;2.67;;
31073;SDS011;17730;53.552;9.940;2022-08-20T13:21:19;15.20;;;6.13;;
31073;SDS011;17730;53.552;9.940;2022-08-20T13:23:44;9.70;;;2.30;;
31073;SDS011;17730;53.552;9.940;2022-08-20T13:26:10;9.27;;;2.65;;
31073;SDS011;17730;53.552;9.940;2022-08-20T13:28:36;16.90;;;4.47;;
31073;SDS011;17730;53.552;9.940;2022-08-20T13:31:01;9.18;;;3.22;;
31073;SDS011;17730;53.552;9.940;2022-08-20T13:33:27;10.73;;;2.10;;
31073;SDS011;17730;53.552;9.940;2022-08-20T13:35:54;13.00;;;4.78;;
31073;SDS011;17730;53.552;9.940;2022-08-20T13:38:20;14.77;;;5.07;;
31073;SDS011;17730;53.552;9.940;2022-08-20T13:40:46;11.15;;;4.72;;
31073;SDS011;17730;53.552;9.940;2022-08-20T13:43:12;25.00;;;13.00;;
31073;SDS011;17730;53.552;9.940;2022-08-20T13:45:38;16.17;;;4.70;;
31073;SDS011;17730;53.552;9.940;2022-08-20T13:48:05;11.60;;;4.82;;
31073;SDS011;17730;53.552;9.940;2022-08-20T13:50:31;14.68;;;7.07;;
31073;SDS011;17730;53.552;9.940;2022-08-20T13:52:57;10.88;;;2.85;;
31073;SDS011;17730;53.552;9.940;2022-08-20T13:55:23;11.77;;;4.93;;
31073;SDS011;17730;53.552;9.940;2022-08-20T13:57:50;12.85;;;4.70;;
31073;SDS011;17730;53.552;9.940;2022-08-20T14:00:19;8.77;;;1.88;;
31073;SDS011;17730;53.552;9.940;2022-08-20T14:02:53;10.50;;;3.17;;
31073;SDS011;17730;53.552;9.940;2022-08-20T14:05:19;9.32;;;2.65;;
31073;SDS011;17730;53.552;9.940;2022-08-20T14:07:46;19.70;;;5.32;;
31073;SDS011;17730;53.552;9.940;2022-08-20T14:10:14;13.00;;;4.75;;
31073;SDS011;17730;53.552;9.940;2022-08-20T14:12:46;9.57;;;4.90;;
31073;SDS011;17730;53.552;9.940;2022-08-20T14:15:11;9.38;;;3.65;;
31073;SDS011;17730;53.552;9.940;2022-08-20T14:17:41;12.75;;;6.28;;
31073;SDS011;17730;53.552;9.940;2022-08-20T14:20:14;14.45;;;5.78;;
31073;SDS011;17730;53.552;9.940;2022-08-20T14:22:41;14.35;;;4.70;;
31073;SDS011;17730;53.552;9.940;2022-08-20T14:25:08;9.35;;;2.28;;
31073;SDS011;17730;53.552;9.940;2022-08-20T14:27:36;6.90;;;2.10;;
31073;SDS011;17730;53.552;9.940;2022-08-20T14:30:03;10.95;;;4.40;;
31073;SDS011;17730;53.552;9.940;2022-08-20T14:32:31;10.10;;;1.88;;
31073;SDS011;17730;53.552;9.940;2022-08-20T14:34:57;13.05;;;7.00;;
31073;SDS011;17730;53.552;9.940;2022-08-20T14:39:49;13.10;;;4.82;;
31073;SDS011;17730;53.552;9.940;2022-08-20T14:42:16;11.48;;;3.05;;
31073;SDS011;17730;53.552;9.940;2022-08-20T14:44:44;16.55;;;7.20;;
31073;SDS011;17730;53.552;9.940;2022-08-20T14:49:35;9.55;;;2.28;;
31073;SDS011;17730;53.552;9.940;2022-08-20T14:52:01;10.75;;;2.53;;
31073;SDS011;17730;53.552;9.940;2022-08-20T14:54:28;14.15;;;4.35;;
31073;SDS011;17730;53.552;9.940;2022-08-20T14:56:56;13.35;;;4.78;;
31073;SDS011;17730;53.552;9.940;2022-08-20T14:59:22;10.38;;;2.17;;
31073;SDS011;17730;53.552;9.940;2022-08-20T15:01:48;11.50;;;4.25;;
31073;SDS011;17730;53.552;9.940;2022-08-20T15:04:14;8.30;;;3.72;;
31073;SDS011;17730;53.552;9.940;2022-08-20T15:06:39;7.38;;;2.88;;
31073;SDS011;17730;53.552;9.940;2022-08-20T15:09:05;7.97;;;2.30;;
31073;SDS011;17730;53.552;9.940;2022-08-20T15:11:31;6.00;;;1.50;;